createdAt,value
2018-04-16T00:00:21.374Z,23.03
2018-04-16T00:05:23.851Z,24.90
2018-04-16T00:10:26.347Z,20.60
2018-04-16T00:15:28.854Z,20.53
2018-04-16T00:20:31.350Z,20.00
2018-04-16T00:25:33.801Z,25.67
2018-04-16T00:30:37.078Z,27.47
2018-04-16T00:35:45.705Z,26.97
2018-04-16T00:40:53.736Z,27.23
2018-04-16T00:46:01.719Z,28.87
2018-04-16T00:51:10.447Z,28.57
2018-04-16T00:56:18.957Z,28.60
2018-04-16T01:01:27.168Z,29.10
2018-04-16T01:06:35.305Z,29.87
2018-04-16T01:11:43.779Z,31.57
2018-04-16T01:16:51.930Z,26.93
2018-04-16T01:21:59.980Z,27.07
2018-04-16T01:27:08.460Z,26.37
2018-04-16T01:32:16.668Z,26.77
2018-04-16T01:37:24.768Z,29.90
2018-04-16T01:42:32.848Z,30.53
2018-04-16T01:47:41.046Z,23.50
2018-04-16T01:52:49.429Z,25.30
2018-04-16T01:57:58.496Z,27.93
2018-04-16T02:03:06.905Z,27.53
2018-04-16T02:08:15.644Z,24.67
2018-04-16T02:13:23.652Z,26.17
2018-04-16T02:18:31.790Z,27.43
2018-04-16T02:23:39.813Z,25.40
2018-04-16T02:28:48.012Z,29.90
2018-04-16T02:33:56.271Z,29.33
2018-04-16T02:39:04.550Z,26.07
2018-04-16T02:44:12.739Z,30.33
2018-04-16T02:49:20.758Z,26.00
2018-04-16T02:54:28.794Z,30.10
2018-04-16T02:59:36.803Z,28.97
2018-04-16T03:04:45.029Z,26.67
2018-04-16T03:09:52.980Z,28.83
2018-04-16T03:15:01.011Z,24.80
2018-04-16T03:20:09.181Z,26.40
2018-04-16T03:25:17.159Z,26.23
2018-04-16T03:30:25.295Z,27.40
2018-04-16T03:35:33.469Z,28.00
2018-04-16T03:40:41.825Z,28.27
2018-04-16T03:46:03.389Z,29.33
2018-04-16T03:51:21.569Z,27.10
2018-04-16T03:56:25.080Z,27.20
2018-04-16T04:01:27.575Z,29.60
2018-04-16T04:06:30.074Z,30.60
2018-04-16T04:11:32.565Z,33.27
2018-04-16T04:16:37.863Z,32.47
2018-04-16T04:21:44.097Z,31.77
2018-04-16T04:26:58.203Z,30.33
2018-04-16T04:32:00.976Z,29.63
2018-04-16T04:37:03.464Z,37.03
2018-04-16T04:42:12.935Z,32.83
2018-04-16T04:47:15.967Z,36.00
2018-04-16T04:52:18.462Z,35.60
2018-04-16T04:57:20.985Z,32.67
2018-04-16T05:02:23.462Z,34.57
2018-04-16T05:07:25.971Z,38.70
2018-04-16T05:12:28.455Z,37.13
2018-04-16T05:17:31.952Z,38.37
2018-04-16T05:22:35.280Z,40.63
2018-04-16T05:27:39.125Z,35.43
2018-04-16T05:32:41.648Z,38.67
2018-04-16T05:37:45.500Z,40.13
2018-04-16T05:42:48.041Z,38.97
2018-04-16T05:47:50.514Z,41.23
2018-04-16T05:52:52.982Z,37.97
2018-04-16T05:57:55.620Z,38.63
2018-04-16T06:02:58.140Z,38.60
2018-04-16T06:08:00.616Z,37.90
2018-04-16T06:13:03.139Z,35.10
2018-04-16T06:18:05.728Z,34.50
2018-04-16T06:23:08.425Z,38.27
2018-04-16T06:28:11.194Z,36.27
2018-04-16T06:33:13.848Z,31.57
2018-04-16T06:38:16.384Z,34.47
2018-04-16T06:43:23.427Z,35.53
2018-04-16T06:48:26.005Z,37.90
2018-04-16T06:53:28.847Z,39.07
2018-04-16T06:58:31.476Z,40.30
2018-04-16T07:03:34.930Z,38.70
2018-04-16T07:08:37.687Z,39.40
2018-04-16T07:13:40.466Z,34.20
2018-04-16T07:18:42.963Z,34.53
2018-04-16T07:23:45.549Z,31.97
2018-04-16T07:28:48.110Z,34.27
2018-04-16T07:33:50.671Z,36.53
2018-04-16T07:38:53.167Z,31.43
2018-04-16T07:43:55.642Z,36.70
2018-04-16T07:48:58.211Z,37.90
2018-04-16T07:54:00.706Z,37.43
2018-04-16T07:59:03.220Z,37.47
2018-04-16T08:04:05.802Z,34.40
2018-04-16T08:09:08.395Z,36.60
2018-04-16T08:14:10.909Z,32.63
2018-04-16T08:19:13.446Z,35.10
2018-04-16T08:24:15.931Z,34.87
2018-04-16T08:29:18.419Z,32.30
2018-04-16T08:34:20.924Z,31.33
2018-04-16T08:39:23.413Z,30.43
2018-04-16T08:44:25.915Z,36.73
2018-04-16T08:49:28.403Z,31.40
2018-04-16T08:54:32.364Z,33.40
2018-04-16T08:59:34.895Z,31.03
2018-04-16T09:04:37.406Z,33.80
2018-04-16T09:09:39.954Z,30.17
2018-04-16T09:14:43.435Z,32.90
2018-04-16T09:19:45.901Z,31.50
2018-04-16T09:24:48.566Z,33.73
2018-04-16T09:29:51.109Z,36.00
2018-04-16T09:34:53.611Z,32.17
2018-04-16T09:39:56.156Z,34.37
2018-04-16T09:44:58.667Z,29.67
2018-04-16T09:50:01.183Z,31.97
2018-04-16T09:55:03.652Z,34.67
2018-04-16T10:00:06.360Z,29.60
2018-04-16T10:05:09.406Z,31.83
2018-04-16T10:10:11.976Z,31.60
2018-04-16T10:15:14.454Z,31.50
2018-04-16T10:20:16.951Z,28.57
2018-04-16T10:25:19.479Z,27.03
2018-04-16T10:30:21.942Z,29.60
2018-04-16T10:35:24.442Z,25.27
2018-04-16T10:40:27.017Z,26.93
2018-04-16T10:45:29.508Z,24.07
2018-04-16T10:50:32.012Z,23.63
2018-04-16T10:55:35.905Z,21.53
2018-04-16T11:00:38.489Z,23.03
2018-04-16T11:05:41.003Z,22.03
2018-04-16T11:10:45.065Z,22.07
2018-04-16T11:15:47.537Z,22.63
2018-04-16T11:20:50.025Z,24.87
2018-04-16T11:25:52.493Z,20.43
2018-04-16T11:30:54.986Z,23.53
2018-04-16T11:35:57.467Z,21.57
2018-04-16T11:40:59.953Z,25.90
2018-04-16T11:46:02.437Z,23.50
2018-04-16T11:51:05.007Z,25.17
2018-04-16T11:56:07.547Z,26.67
2018-04-16T12:01:10.105Z,27.10
2018-04-16T12:06:12.666Z,27.33
2018-04-16T12:11:15.147Z,24.77
2018-04-16T12:16:17.646Z,29.17
2018-04-16T12:21:20.180Z,27.43
2018-04-16T12:26:22.634Z,28.70
2018-04-16T12:31:25.128Z,26.80
2018-04-16T12:36:27.590Z,28.97
2018-04-16T12:41:30.137Z,27.20
2018-04-16T12:46:32.608Z,30.87
2018-04-16T12:51:35.137Z,29.23
2018-04-16T12:56:37.705Z,29.20
2018-04-16T13:01:40.247Z,27.97
2018-04-16T13:06:42.798Z,32.90
2018-04-16T13:11:45.297Z,31.87
2018-04-16T13:16:47.796Z,32.57
2018-04-16T13:21:50.255Z,33.60
2018-04-16T13:26:52.725Z,34.07
2018-04-16T13:31:55.229Z,33.53
2018-04-16T13:36:57.712Z,36.07
2018-04-16T13:42:00.199Z,35.30
2018-04-16T13:47:02.709Z,37.57
2018-04-16T13:52:08.148Z,35.00
2018-04-16T13:57:10.645Z,44.47
2018-04-16T14:02:13.156Z,36.57
2018-04-16T14:07:15.652Z,33.50
2018-04-16T14:12:18.122Z,32.97
2018-04-16T14:17:20.706Z,34.90
2018-04-16T14:22:24.318Z,38.70
2018-04-16T14:27:27.785Z,38.13
2018-04-16T14:32:30.265Z,40.20
2018-04-16T14:37:32.724Z,38.77
2018-04-16T14:42:36.087Z,38.33
2018-04-16T14:47:38.606Z,38.83
2018-04-16T14:52:41.093Z,44.90
2018-04-16T14:57:43.551Z,43.40
2018-04-16T15:02:46.034Z,47.20
2018-04-16T15:07:48.507Z,47.43
2018-04-16T15:12:50.989Z,39.30
2018-04-16T15:17:53.453Z,41.50
2018-04-16T15:22:56.902Z,42.70
2018-04-16T15:27:59.439Z,47.47
2018-04-16T15:33:01.915Z,46.30
2018-04-16T15:38:04.562Z,45.50
2018-04-16T15:43:07.168Z,44.87
2018-04-16T15:48:09.707Z,46.77
2018-04-16T15:53:12.257Z,51.30
2018-04-16T15:58:14.723Z,51.30
2018-04-16T16:03:17.228Z,51.63
2018-04-16T16:08:19.731Z,61.23
2018-04-16T16:13:22.236Z,50.50
2018-04-16T16:18:24.750Z,49.07
2018-04-16T16:23:27.306Z,48.90
2018-04-16T16:28:29.800Z,53.43
2018-04-16T16:33:32.408Z,53.20
2018-04-16T16:38:34.941Z,53.87
2018-04-16T16:43:37.595Z,58.03
2018-04-16T16:48:40.136Z,55.27
2018-04-16T16:53:42.647Z,58.57
2018-04-16T16:58:45.235Z,58.23
2018-04-16T17:03:47.794Z,49.93
2018-04-16T17:08:50.304Z,51.43
2018-04-16T17:13:52.780Z,50.97
2018-04-16T17:18:55.231Z,49.67
2018-04-16T17:23:59.254Z,51.70
2018-04-16T17:29:01.740Z,54.60
2018-04-16T17:34:04.872Z,55.60
2018-04-16T17:39:07.511Z,59.63
2018-04-16T17:44:11.865Z,58.27
2018-04-16T17:49:14.668Z,53.47
2018-04-16T17:54:17.167Z,65.20
2018-04-16T17:59:19.639Z,66.17
2018-04-16T18:04:22.201Z,58.93
2018-04-16T18:09:24.856Z,69.60
2018-04-16T18:14:27.324Z,62.63
2018-04-16T18:19:29.817Z,71.43
2018-04-16T18:24:32.296Z,57.67
2018-04-16T18:29:35.235Z,57.97
2018-04-16T18:34:38.483Z,56.10
2018-04-16T18:39:41.322Z,51.53
2018-04-16T18:44:44.206Z,49.20
2018-04-16T18:49:46.771Z,60.93
2018-04-16T18:54:49.597Z,58.90
2018-04-16T18:59:52.093Z,57.70
2018-04-16T19:04:54.592Z,57.73
2018-04-16T19:09:58.244Z,53.33
2018-04-16T19:15:01.399Z,48.47
2018-04-16T19:20:04.705Z,48.23
2018-04-16T19:25:07.455Z,40.77
2018-04-16T19:30:10.017Z,42.10
2018-04-16T19:35:12.613Z,41.20
2018-04-16T19:40:15.141Z,42.90
2018-04-16T19:45:18.073Z,40.50
2018-04-16T19:50:20.553Z,41.70
2018-04-16T19:55:23.066Z,44.97
2018-04-16T20:00:25.598Z,43.03
2018-04-16T20:05:28.777Z,45.83
2018-04-16T20:10:32.377Z,41.77
2018-04-16T20:15:35.361Z,45.63
2018-04-16T20:20:39.175Z,45.30
2018-04-16T20:25:45.653Z,40.87
2018-04-16T20:30:48.479Z,46.87
2018-04-16T20:35:51.450Z,42.00
2018-04-16T20:40:54.071Z,44.33
2018-04-16T20:45:56.578Z,42.70
2018-04-16T20:50:59.110Z,38.57
2018-04-16T20:56:01.604Z,38.77
2018-04-16T21:01:04.126Z,39.37
2018-04-16T21:06:06.927Z,41.80
2018-04-16T21:11:09.678Z,41.90
2018-04-16T21:16:12.343Z,43.17
2018-04-16T21:21:15.073Z,40.67
2018-04-16T21:26:17.668Z,47.50
2018-04-16T21:31:20.192Z,50.43
2018-04-16T21:36:22.693Z,54.67
2018-04-16T21:41:25.165Z,50.23
2018-04-16T21:46:27.637Z,51.37
2018-04-16T21:51:30.123Z,65.77
2018-04-16T21:56:32.621Z,70.30
2018-04-16T22:01:35.814Z,76.53
2018-04-16T22:06:38.548Z,69.47
2018-04-16T22:11:41.216Z,78.33
2018-04-16T22:16:43.770Z,78.97
2018-04-16T22:21:46.264Z,83.13
2018-04-16T22:26:48.743Z,87.67
2018-04-16T22:31:51.315Z,85.40
2018-04-16T22:36:53.789Z,73.73
2018-04-16T22:41:56.270Z,71.17
2018-04-16T22:46:59.616Z,70.70
2018-04-16T22:52:02.077Z,72.27
2018-04-16T22:57:04.640Z,70.57
2018-04-16T23:02:07.213Z,68.33
2018-04-16T23:07:10.433Z,72.33
2018-04-16T23:12:13.001Z,82.80
2018-04-16T23:17:15.495Z,71.87
2018-04-16T23:22:18.014Z,73.40
2018-04-16T23:27:20.504Z,72.57
2018-04-16T23:32:23.288Z,74.00
2018-04-16T23:37:25.788Z,76.00
2018-04-16T23:42:28.254Z,78.77
2018-04-16T23:47:30.759Z,69.27
2018-04-16T23:52:33.474Z,74.90
2018-04-16T23:57:36.021Z,66.53
